createdAt,value
2017-09-21T00:02:19.869Z,70.90
2017-09-21T00:04:46.743Z,70.10
2017-09-21T00:07:12.966Z,70.20
2017-09-21T00:09:39.537Z,69.90
2017-09-21T00:12:06.028Z,70.00
2017-09-21T00:14:33.986Z,69.90
2017-09-21T00:17:00.779Z,69.90
2017-09-21T00:19:27.197Z,70.50
2017-09-21T00:21:54.038Z,71.00
2017-09-21T00:24:20.575Z,71.20
2017-09-21T00:26:49.023Z,70.50
2017-09-21T00:29:16.045Z,70.50
2017-09-21T00:31:42.259Z,70.50
2017-09-21T00:34:09.231Z,71.60
2017-09-21T00:36:35.467Z,71.50
2017-09-21T00:39:01.862Z,70.90
2017-09-21T00:41:29.802Z,73.20
2017-09-21T00:43:56.027Z,73.20
2017-09-21T00:46:23.045Z,73.70
2017-09-21T00:48:50.928Z,74.30
2017-09-21T00:51:17.678Z,73.00
2017-09-21T00:53:44.435Z,74.00
2017-09-21T00:56:10.686Z,73.60
2017-09-21T00:58:38.445Z,72.80
2017-09-21T01:01:05.754Z,73.10
2017-09-21T01:03:33.755Z,72.80
2017-09-21T01:06:00.500Z,72.70
2017-09-21T01:08:28.241Z,72.50
2017-09-21T01:10:55.007Z,71.90
2017-09-21T01:13:22.019Z,72.10
2017-09-21T01:15:48.627Z,72.00
2017-09-21T01:18:15.678Z,73.10
2017-09-21T01:20:42.365Z,71.90
2017-09-21T01:23:09.534Z,71.80
2017-09-21T01:25:37.062Z,71.50
2017-09-21T01:28:04.031Z,71.40
2017-09-21T01:30:31.925Z,71.50
2017-09-21T01:32:58.432Z,71.40
2017-09-21T01:35:26.729Z,71.40
2017-09-21T01:37:53.010Z,71.30
2017-09-21T01:40:19.279Z,72.90
2017-09-21T01:42:47.136Z,72.00
2017-09-21T01:45:14.887Z,71.60
2017-09-21T01:47:42.540Z,71.30
2017-09-21T01:50:10.034Z,71.30
2017-09-21T01:52:37.680Z,71.40
2017-09-21T01:55:04.936Z,71.80
2017-09-21T01:57:32.884Z,72.70
2017-09-21T02:00:00.178Z,72.60
2017-09-21T02:02:28.001Z,73.00
2017-09-21T02:04:54.495Z,72.00
2017-09-21T02:07:20.963Z,72.40
2017-09-21T02:09:48.378Z,72.20
2017-09-21T02:12:15.315Z,72.00
2017-09-21T02:14:42.017Z,73.60
2017-09-21T02:17:09.903Z,75.20
2017-09-21T02:19:37.992Z,74.70
2017-09-21T02:22:04.782Z,74.70
2017-09-21T02:24:31.045Z,73.90
2017-09-21T02:26:58.150Z,73.90
2017-09-21T02:29:24.400Z,73.00
2017-09-21T02:31:50.829Z,73.00
2017-09-21T02:34:18.394Z,74.60
2017-09-21T02:36:46.380Z,74.60
2017-09-21T02:39:15.377Z,73.30
2017-09-21T02:41:42.398Z,73.20
2017-09-21T02:44:09.387Z,73.20
2017-09-21T02:46:36.229Z,73.10
2017-09-21T02:49:03.972Z,72.70
2017-09-21T02:51:30.935Z,73.00
2017-09-21T02:53:57.993Z,73.10
2017-09-21T02:56:25.593Z,74.00
2017-09-21T02:58:53.697Z,73.10
2017-09-21T03:01:21.745Z,73.30
2017-09-21T03:03:50.300Z,73.90
2017-09-21T03:06:16.513Z,73.90
2017-09-21T03:08:43.492Z,73.00
2017-09-21T03:11:10.690Z,73.00
2017-09-21T03:13:37.443Z,73.90
2017-09-21T03:16:05.308Z,73.10
2017-09-21T03:18:32.308Z,72.70
2017-09-21T03:20:59.286Z,72.80
2017-09-21T03:23:25.726Z,72.80
2017-09-21T03:25:52.956Z,72.90
2017-09-21T03:28:19.908Z,72.80
2017-09-21T03:30:46.111Z,72.80
2017-09-21T03:33:13.346Z,72.90
2017-09-21T03:35:40.344Z,73.00
2017-09-21T03:38:06.859Z,72.80
2017-09-21T03:40:34.424Z,73.50
2017-09-21T03:43:02.199Z,73.40
2017-09-21T03:45:29.467Z,74.00
2017-09-21T03:47:56.211Z,73.90
2017-09-21T03:50:23.533Z,74.00
2017-09-21T03:52:49.743Z,73.20
2017-09-21T03:55:17.661Z,73.10
2017-09-21T03:57:43.938Z,73.10
2017-09-21T04:00:10.905Z,73.60
2017-09-21T04:02:38.663Z,73.60
2017-09-21T04:05:05.121Z,75.50
2017-09-21T04:07:32.347Z,74.70
2017-09-21T04:09:59.232Z,74.40
2017-09-21T04:12:25.913Z,75.10
2017-09-21T04:14:53.623Z,73.90
2017-09-21T04:17:19.851Z,73.90
2017-09-21T04:19:46.799Z,75.30
2017-09-21T04:22:13.045Z,76.60
2017-09-21T04:24:40.048Z,75.70
2017-09-21T04:27:07.158Z,74.50
2017-09-21T04:29:34.006Z,74.30
2017-09-21T04:32:00.980Z,75.80
2017-09-21T04:34:28.361Z,75.80
2017-09-21T04:36:55.100Z,74.90
2017-09-21T04:39:21.871Z,75.40
2017-09-21T04:41:48.584Z,75.50
2017-09-21T04:44:15.060Z,74.90
2017-09-21T04:46:42.090Z,74.20
2017-09-21T04:49:08.298Z,74.10
2017-09-21T04:51:34.618Z,74.10
2017-09-21T04:54:01.325Z,74.00
2017-09-21T04:56:27.670Z,74.30
2017-09-21T04:58:54.131Z,74.30
2017-09-21T05:01:21.556Z,74.20
2017-09-21T05:03:49.176Z,74.60
2017-09-21T05:06:15.592Z,74.60
2017-09-21T05:08:42.472Z,74.00
2017-09-21T05:11:10.046Z,73.90
2017-09-21T05:13:36.305Z,73.70
2017-09-21T05:16:02.702Z,73.80
2017-09-21T05:18:29.428Z,73.70
2017-09-21T05:20:57.264Z,74.00
2017-09-21T05:23:23.488Z,74.00
2017-09-21T05:25:49.715Z,74.00
2017-09-21T05:28:16.588Z,75.20
2017-09-21T05:30:43.552Z,76.80
2017-09-21T05:33:10.094Z,76.00
2017-09-21T05:35:37.576Z,76.60
2017-09-21T05:38:03.830Z,76.50
2017-09-21T05:40:30.174Z,76.70
2017-09-21T05:42:56.591Z,76.50
2017-09-21T05:55:04.985Z,75.00
2017-09-21T05:57:32.519Z,75.20
2017-09-21T05:59:59.600Z,75.10
2017-09-21T06:02:26.111Z,75.00
2017-09-21T06:04:53.527Z,75.70
2017-09-21T06:07:20.689Z,75.60
2017-09-21T06:09:46.920Z,75.70
2017-09-21T06:12:13.821Z,75.40
2017-09-21T06:14:40.127Z,75.40
2017-09-21T06:17:06.570Z,75.60
2017-09-21T06:19:33.595Z,75.60
2017-09-21T06:22:01.145Z,75.40
2017-09-21T06:24:27.694Z,75.40
2017-09-21T06:26:54.167Z,75.20
2017-09-21T06:29:20.470Z,74.90
2017-09-21T06:31:47.500Z,74.80
2017-09-21T06:34:14.766Z,74.70
2017-09-21T06:36:41.918Z,74.70
2017-09-21T06:39:09.771Z,74.80
2017-09-21T06:41:36.257Z,74.80
2017-09-21T06:44:03.472Z,75.30
2017-09-21T06:46:31.141Z,75.10
2017-09-21T06:48:57.560Z,75.10
2017-09-21T06:51:24.721Z,74.50
2017-09-21T06:53:52.325Z,74.10
2017-09-21T06:56:20.186Z,74.00
2017-09-21T06:58:47.510Z,74.30
2017-09-21T07:01:13.759Z,74.20
2017-09-21T07:03:40.773Z,73.80
2017-09-21T07:06:07.766Z,74.90
2017-09-21T07:08:35.106Z,74.90
2017-09-21T07:11:01.678Z,74.20
2017-09-21T07:13:27.973Z,73.90
2017-09-21T07:15:54.589Z,73.70
2017-09-21T07:18:21.758Z,74.10
2017-09-21T07:20:49.181Z,74.10
2017-09-21T07:23:16.567Z,73.60
2017-09-21T07:25:44.834Z,74.20
2017-09-21T07:28:11.885Z,74.20
2017-09-21T07:30:40.174Z,73.80
2017-09-21T07:33:06.477Z,73.70
2017-09-21T07:35:32.722Z,73.20
2017-09-21T07:37:59.396Z,73.50
2017-09-21T07:40:26.306Z,73.60
2017-09-21T07:42:53.970Z,71.90
2017-09-21T07:45:21.916Z,71.30
2017-09-21T07:47:48.213Z,71.40
2017-09-21T07:50:14.469Z,71.70
2017-09-21T07:52:41.133Z,72.60
2017-09-21T07:55:08.278Z,71.40
2017-09-21T07:57:35.491Z,71.50
2017-09-21T08:00:02.597Z,71.70
2017-09-21T08:02:30.152Z,70.80
2017-09-21T08:04:56.574Z,70.80
2017-09-21T08:07:22.903Z,71.10
2017-09-21T08:09:49.345Z,70.60
2017-09-21T08:12:16.368Z,70.90
2017-09-21T08:14:44.910Z,70.90
2017-09-21T08:17:11.273Z,71.30
2017-09-21T08:19:37.493Z,71.00
2017-09-21T08:22:03.980Z,71.70
2017-09-21T08:24:30.578Z,71.30
2017-09-21T08:26:56.843Z,70.90
2017-09-21T08:29:23.263Z,70.40
2017-09-21T08:31:50.318Z,70.30
2017-09-21T08:34:17.469Z,70.10
2017-09-21T08:36:44.345Z,70.60
2017-09-21T08:39:12.215Z,70.00
2017-09-21T08:41:40.132Z,69.80
2017-09-21T08:44:06.465Z,69.60
2017-09-21T08:46:33.469Z,69.40
2017-09-21T08:49:00.440Z,70.50
2017-09-21T08:51:26.689Z,70.50
2017-09-21T08:53:52.944Z,69.80
2017-09-21T08:56:19.952Z,71.00
2017-09-21T08:58:48.497Z,70.60
2017-09-21T09:01:16.032Z,70.30
2017-09-21T09:03:42.786Z,70.30
2017-09-21T09:06:09.788Z,68.40
2017-09-21T09:08:36.399Z,68.30
2017-09-21T09:11:04.736Z,68.10
2017-09-21T09:13:34.536Z,68.10
2017-09-21T09:16:00.948Z,67.20
2017-09-21T09:18:28.514Z,68.50
2017-09-21T09:20:55.109Z,66.00
2017-09-21T09:23:21.933Z,66.00
2017-09-21T09:25:48.933Z,65.20
2017-09-21T09:28:15.581Z,65.20
2017-09-21T09:30:41.837Z,66.50
2017-09-21T09:33:08.287Z,65.90
2017-09-21T09:35:36.100Z,64.60
2017-09-21T09:38:04.177Z,63.10
2017-09-21T09:40:30.768Z,63.00
2017-09-21T09:42:58.340Z,61.70
2017-09-21T09:45:25.144Z,61.70
2017-09-21T09:47:52.362Z,62.30
2017-09-21T09:50:19.168Z,61.90
2017-09-21T09:52:46.060Z,62.70
2017-09-21T09:55:12.316Z,63.70
2017-09-21T09:57:40.667Z,61.00
2017-09-21T10:00:07.991Z,61.00
2017-09-21T10:02:35.055Z,59.80
2017-09-21T10:05:02.250Z,59.70
2017-09-21T10:07:30.510Z,60.00
2017-09-21T10:09:57.508Z,59.90
2017-09-21T10:12:24.444Z,60.80
2017-09-21T10:14:52.038Z,59.40
2017-09-21T10:17:18.634Z,59.40
2017-09-21T10:19:45.751Z,58.30
2017-09-21T10:22:12.269Z,58.20
2017-09-21T10:24:38.886Z,58.30
2017-09-21T10:27:05.139Z,56.20
2017-09-21T10:29:32.004Z,56.90
2017-09-21T10:31:59.156Z,58.10
2017-09-21T10:34:26.311Z,57.50
2017-09-21T10:36:53.720Z,57.90
2017-09-21T10:39:19.988Z,57.90
2017-09-21T10:41:47.806Z,55.90
2017-09-21T10:44:14.091Z,55.90
2017-09-21T10:46:41.333Z,56.10
2017-09-21T10:49:08.333Z,57.10
2017-09-21T10:51:34.591Z,57.10
2017-09-21T10:54:00.817Z,56.20
2017-09-21T10:56:28.164Z,54.10
2017-09-21T10:58:54.908Z,54.70
2017-09-21T11:01:21.730Z,54.70
2017-09-21T11:03:48.037Z,53.90
2017-09-21T11:06:14.692Z,54.30
2017-09-21T11:08:41.134Z,55.10
2017-09-21T11:11:08.411Z,55.50
2017-09-21T11:13:34.656Z,55.50
2017-09-21T11:16:01.637Z,52.90
2017-09-21T11:18:28.212Z,52.90
2017-09-21T11:20:55.014Z,54.70
2017-09-21T11:23:21.289Z,54.90
2017-09-21T11:25:47.759Z,54.80
2017-09-21T11:28:14.161Z,54.80
2017-09-21T11:30:41.502Z,53.70
2017-09-21T11:33:07.781Z,53.70
2017-09-21T11:35:34.205Z,54.10
2017-09-21T11:38:00.676Z,54.00
2017-09-21T11:40:26.918Z,54.70
2017-09-21T11:42:53.601Z,55.10
2017-09-21T11:45:21.636Z,54.50
2017-09-21T11:47:47.952Z,54.50
2017-09-21T11:50:14.183Z,54.80
2017-09-21T11:52:41.058Z,54.70
2017-09-21T11:55:07.670Z,54.60
2017-09-21T11:57:34.299Z,54.70
2017-09-21T12:00:01.949Z,54.10
2017-09-21T12:02:28.668Z,54.00
2017-09-21T12:04:55.980Z,54.50
2017-09-21T12:07:23.330Z,54.90
2017-09-21T12:09:50.909Z,54.60
2017-09-21T12:12:17.937Z,54.00
2017-09-21T12:14:45.344Z,54.60
2017-09-21T12:17:12.385Z,54.60
2017-09-21T12:19:39.447Z,54.80
2017-09-21T12:22:06.522Z,54.70
2017-09-21T12:24:33.640Z,54.70
2017-09-21T12:27:00.616Z,55.10
2017-09-21T12:29:27.547Z,55.50
2017-09-21T12:31:54.223Z,55.10
2017-09-21T12:34:20.601Z,55.50
2017-09-21T12:36:47.822Z,55.60
2017-09-21T12:39:14.323Z,55.60
2017-09-21T12:41:41.728Z,56.30
2017-09-21T12:44:09.058Z,56.30
2017-09-21T12:46:35.270Z,55.80
2017-09-21T12:49:01.612Z,54.80
2017-09-21T12:51:27.833Z,55.00
2017-09-21T12:53:54.506Z,55.50
2017-09-21T12:56:20.836Z,55.80
2017-09-21T12:58:47.075Z,55.50
2017-09-21T13:01:14.198Z,55.00
2017-09-21T13:03:41.018Z,55.00
2017-09-21T13:06:07.538Z,55.50
2017-09-21T13:08:33.779Z,55.10
2017-09-21T13:11:00.669Z,55.30
2017-09-21T13:13:27.308Z,55.30
2017-09-21T13:15:54.793Z,56.00
2017-09-21T13:18:21.116Z,55.90
2017-09-21T13:20:47.867Z,54.60
2017-09-21T13:23:14.113Z,54.20
2017-09-21T13:25:40.659Z,54.80
2017-09-21T13:28:08.215Z,53.90
2017-09-21T13:30:34.960Z,53.80
2017-09-21T13:33:01.238Z,53.50
2017-09-21T13:35:28.202Z,54.40
2017-09-21T13:37:56.032Z,54.30
2017-09-21T13:40:23.535Z,53.80
2017-09-21T13:42:50.429Z,53.10
2017-09-21T13:45:17.799Z,53.50
2017-09-21T13:47:44.888Z,53.40
2017-09-21T13:50:11.168Z,53.40
2017-09-21T13:55:10.685Z,55.40
2017-09-21T13:57:37.170Z,55.80
2017-09-21T14:00:04.288Z,55.90
2017-09-21T14:02:31.279Z,54.90
2017-09-21T14:04:58.554Z,54.90
2017-09-21T14:07:25.540Z,55.40
2017-09-21T14:10:02.254Z,54.70
2017-09-21T14:12:28.555Z,54.60
2017-09-21T14:14:55.269Z,53.50
2017-09-21T14:17:22.321Z,54.00
2017-09-21T14:19:49.886Z,54.30
2017-09-21T14:22:16.402Z,54.30
2017-09-21T14:24:43.987Z,54.80
2017-09-21T14:27:11.092Z,54.50
2017-09-21T14:29:37.831Z,54.50
2017-09-21T14:32:04.162Z,53.30
2017-09-21T14:34:30.950Z,53.90
2017-09-21T14:36:57.489Z,54.30
2017-09-21T14:39:24.601Z,54.60
2017-09-21T14:41:51.712Z,54.50
2017-09-21T14:44:17.948Z,54.50
2017-09-21T14:46:44.745Z,53.70
2017-09-21T14:49:11.052Z,54.00
2017-09-21T14:51:38.632Z,54.00
2017-09-21T14:54:04.885Z,53.90
2017-09-21T14:56:32.089Z,54.30
2017-09-21T14:58:59.959Z,54.50
2017-09-21T15:01:27.065Z,54.70
2017-09-21T15:03:54.336Z,54.70
2017-09-21T15:06:21.343Z,53.90
2017-09-21T15:08:47.948Z,53.50
2017-09-21T15:11:14.932Z,54.30
2017-09-21T15:13:41.716Z,54.30
2017-09-21T15:16:08.986Z,53.90
2017-09-21T15:18:36.126Z,54.60
2017-09-21T15:21:03.222Z,55.10
2017-09-21T15:23:29.465Z,55.10
2017-09-21T15:25:56.337Z,54.60
2017-09-21T15:28:24.019Z,54.00
2017-09-21T15:30:51.008Z,54.00
2017-09-21T15:33:19.373Z,54.00
2017-09-21T15:35:46.970Z,54.60
2017-09-21T15:38:13.763Z,54.50
2017-09-21T15:40:40.147Z,54.80
2017-09-21T15:43:07.024Z,54.40
2017-09-21T15:45:37.723Z,53.90
2017-09-21T15:48:04.190Z,53.90
2017-09-21T15:50:30.490Z,54.20
2017-09-21T15:52:56.671Z,54.60
2017-09-21T15:55:22.944Z,54.30
2017-09-21T15:57:49.686Z,54.50
2017-09-21T16:00:16.953Z,55.40
2017-09-21T16:02:45.212Z,55.80
2017-09-21T16:05:11.453Z,55.80
2017-09-21T16:07:38.134Z,55.70
2017-09-21T16:10:04.333Z,56.20
2017-09-21T16:12:31.301Z,56.20
2017-09-21T16:14:57.535Z,56.20
2017-09-21T16:17:23.979Z,55.90
2017-09-21T16:19:51.047Z,55.90
2017-09-21T16:22:18.273Z,56.00
2017-09-21T16:24:46.816Z,55.90
2017-09-21T16:27:14.270Z,55.80
2017-09-21T16:29:42.321Z,55.90
2017-09-21T16:32:08.545Z,55.90
2017-09-21T16:34:34.783Z,55.70
2017-09-21T16:37:02.595Z,56.20
2017-09-21T16:39:29.054Z,56.10
2017-09-21T16:41:56.571Z,57.00
2017-09-21T16:44:23.158Z,57.00
2017-09-21T16:46:50.417Z,57.20
2017-09-21T16:49:17.318Z,57.60
2017-09-21T16:51:44.735Z,58.80
2017-09-21T16:54:11.698Z,59.20
2017-09-21T16:56:38.576Z,59.20
2017-09-21T16:59:04.823Z,59.10
2017-09-21T17:01:31.784Z,60.10
2017-09-21T17:03:58.304Z,60.00
2017-09-21T17:06:25.081Z,59.60
2017-09-21T17:08:52.682Z,61.30
2017-09-21T17:11:19.810Z,61.30
2017-09-21T17:13:47.312Z,62.40
2017-09-21T17:16:13.695Z,62.40
2017-09-21T17:18:40.462Z,62.40
2017-09-21T17:21:07.930Z,62.70
2017-09-21T17:23:34.209Z,62.60
2017-09-21T17:26:01.144Z,61.60
2017-09-21T17:28:28.259Z,60.90
2017-09-21T17:30:54.501Z,60.90
2017-09-21T17:33:20.728Z,63.60
2017-09-21T17:35:47.883Z,62.70
2017-09-21T17:38:14.649Z,64.10
2017-09-21T17:40:41.318Z,64.80
2017-09-21T17:43:07.620Z,63.70
2017-09-21T17:45:33.947Z,63.10
2017-09-21T17:48:00.221Z,64.30
2017-09-21T17:50:26.435Z,65.90
2017-09-21T17:52:53.543Z,65.20
2017-09-21T17:55:21.490Z,66.40
2017-09-21T17:57:47.995Z,66.40
2017-09-21T18:00:15.671Z,67.10
2017-09-21T18:02:41.905Z,67.10
2017-09-21T18:05:08.686Z,66.80
2017-09-21T18:07:35.222Z,66.00
2017-09-21T18:10:03.748Z,65.40
2017-09-21T18:12:29.962Z,65.60
2017-09-21T18:14:56.800Z,66.30
2017-09-21T18:17:23.393Z,65.00
2017-09-21T18:19:51.785Z,65.70
2017-09-21T18:22:19.036Z,64.80
2017-09-21T18:24:46.289Z,66.10
2017-09-21T18:27:12.946Z,66.00
2017-09-21T18:29:39.179Z,65.70
2017-09-21T18:32:06.071Z,66.90
2017-09-21T18:34:34.139Z,67.40
2017-09-21T18:37:00.387Z,67.40
2017-09-21T18:39:28.549Z,67.50
2017-09-21T18:41:55.183Z,67.50
2017-09-21T18:44:22.197Z,67.40
2017-09-21T18:46:49.124Z,67.30
2017-09-21T18:49:15.492Z,67.80
2017-09-21T18:51:43.086Z,68.60
2017-09-21T18:54:09.762Z,67.90
2017-09-21T18:56:36.723Z,68.10
2017-09-21T18:59:03.332Z,68.20
2017-09-21T19:01:30.209Z,67.80
2017-09-21T19:03:57.472Z,67.20
2017-09-21T19:06:24.351Z,67.60
2017-09-21T19:08:51.331Z,67.50
2017-09-21T19:11:17.620Z,67.20
2017-09-21T19:13:44.125Z,67.80
2017-09-21T19:16:10.364Z,68.10
2017-09-21T19:18:37.472Z,67.80
2017-09-21T19:21:04.022Z,67.70
2017-09-21T19:23:31.738Z,67.70
2017-09-21T19:25:58.312Z,67.60
2017-09-21T19:28:25.123Z,68.10
2017-09-21T19:30:51.395Z,67.90
2017-09-21T19:33:18.727Z,67.10
2017-09-21T19:35:46.172Z,67.20
2017-09-21T19:38:13.491Z,66.20
2017-09-21T19:40:40.797Z,66.10
2017-09-21T19:43:07.101Z,66.10
2017-09-21T19:45:33.356Z,65.80
2017-09-21T19:47:59.605Z,66.40
2017-09-21T19:50:25.849Z,66.40
2017-09-21T19:52:52.846Z,67.90
2017-09-21T19:55:19.582Z,67.90
2017-09-21T19:57:46.829Z,67.70
2017-09-21T20:00:13.185Z,67.60
2017-09-21T20:02:39.695Z,67.00
2017-09-21T20:05:05.955Z,68.70
2017-09-21T20:07:32.748Z,68.20
2017-09-21T20:10:00.020Z,68.20
2017-09-21T20:12:26.716Z,67.60
2017-09-21T20:14:53.350Z,66.90
2017-09-21T20:17:20.671Z,67.70
2017-09-21T20:19:47.673Z,68.70
2017-09-21T20:22:13.944Z,68.70
2017-09-21T20:24:40.375Z,67.80
2017-09-21T20:27:06.808Z,67.30
2017-09-21T20:29:34.240Z,67.10
2017-09-21T20:32:01.505Z,67.20
2017-09-21T20:34:28.950Z,67.20
2017-09-21T20:36:55.501Z,68.20
2017-09-21T22:17:34.444Z,69.00
2017-09-21T22:20:00.916Z,69.00
2017-09-21T22:22:29.569Z,71.50
2017-09-21T22:24:57.613Z,73.10
2017-09-21T22:27:24.405Z,73.10
2017-09-21T22:29:50.679Z,73.60
2017-09-21T22:32:16.961Z,72.40
2017-09-21T22:34:43.469Z,71.60
2017-09-21T22:37:09.693Z,71.80
2017-09-21T22:39:36.094Z,71.40
2017-09-21T22:42:03.171Z,71.10
2017-09-21T22:44:29.901Z,71.00
2017-09-21T22:46:57.269Z,70.90
2017-09-21T22:49:23.992Z,70.90
2017-09-21T22:51:52.248Z,70.50
2017-09-21T22:54:19.945Z,71.40
2017-09-21T22:56:47.567Z,70.40
2017-09-21T22:59:14.537Z,70.30
2017-09-21T23:01:40.797Z,70.30
2017-09-21T23:04:07.007Z,71.20
2017-09-21T23:06:34.733Z,70.60
2017-09-21T23:09:01.888Z,70.80
2017-09-21T23:11:29.206Z,72.40
2017-09-21T23:13:56.604Z,72.80
2017-09-21T23:16:23.951Z,72.80
2017-09-21T23:18:51.056Z,70.80
2017-09-21T23:21:18.926Z,70.80
2017-09-21T23:23:46.589Z,70.30
2017-09-21T23:26:14.149Z,70.50
2017-09-21T23:28:40.739Z,70.40
2017-09-21T23:31:07.672Z,70.30
2017-09-21T23:33:34.950Z,70.20
2017-09-21T23:36:01.573Z,71.10
2017-09-21T23:38:28.557Z,70.30
2017-09-21T23:40:54.799Z,71.30
2017-09-21T23:43:21.020Z,71.00
2017-09-21T23:45:47.810Z,70.60
2017-09-21T23:48:14.022Z,70.30
2017-09-21T23:50:40.998Z,70.60
2017-09-21T23:53:07.341Z,70.60
2017-09-21T23:55:33.570Z,70.90
2017-09-21T23:57:59.993Z,70.70
